Date,TemperatureHighF,TemperatureAvgF,TemperatureLowF,DewpointHighF,DewpointAvgF,DewpointLowF,HumidityHigh,HumidityAvg,HumidityLow,PressureMaxIn,PressureMinIn,WindSpeedMaxMPH,WindSpeedAvgMPH,GustSpeedMaxMPH,PrecipitationSumIn
2013-7-1,77.9,75.2,73.1,76.2,73.8,72.0,97,96,90,29.98,29.84,14,2,15,1.62
2013-7-2,91.7,78.5,72.6,78.8,73.7,71.4,97,86,61,30.08,29.96,13,2,14,1.17
2013-7-3,90.0,77.3,74.3,78.4,74.0,71.8,97,90,65,30.11,30.02,15,1,15,3.19
2013-7-4,90.8,78.6,72.7,79.1,74.0,70.9,96,87,57,30.13,30.04,13,2,16,0.12
2013-7-5,90.2,77.8,72.8,77.2,73.6,69.4,95,88,64,30.13,30.05,14,2,23,0.14
2013-7-6,93.1,81.7,73.4,78.0,74.8,71.9,96,81,55,30.10,30.01,13,1,13,0.00
2013-7-7,93.2,83.4,75.1,78.8,74.1,72.1,94,75,53,30.12,30.00,12,2,14,0.04
2013-7-8,93.7,82.4,75.4,77.8,74.1,71.0,93,77,53,30.15,30.06,10,1,11,0.53
2013-7-9,93.8,82.9,74.1,75.6,72.7,68.7,93,73,46,30.15,30.04,13,1,13,0.00
2013-7-10,90.7,80.3,73.7,76.3,73.3,71.2,94,81,58,30.08,29.96,20,1,20,1.43
2013-7-11,90.6,81.3,73.9,77.8,74.3,71.9,95,80,61,30.02,29.93,10,1,11,0.01
2013-7-12,88.3,81.3,75.1,77.5,74.4,71.5,93,80,67,29.95,29.89,8,1,10,0.22
2013-7-13,87.6,79.0,73.7,77.7,74.0,71.7,95,86,67,29.98,29.90,9,1,9,0.73
2013-7-14,89.9,78.7,73.2,80.1,73.6,70.5,94,85,64,30.07,29.94,10,1,12,0.01
2013-7-15,90.2,79.4,73.8,76.9,72.9,70.5,95,82,59,30.09,29.98,13,1,15,1.63
2013-7-16,87.5,77.2,73.9,75.6,72.3,69.3,95,85,63,30.13,30.05,29,2,29,0.18
2013-7-17,90.3,77.9,73.7,76.0,72.5,70.2,93,84,58,30.14,30.06,20,2,22,0.05
2013-7-18,85.8,77.0,72.1,75.8,72.4,69.0,94,86,69,30.10,30.03,14,1,14,1.68
2013-7-19,89.9,78.5,71.9,79.1,73.4,70.1,95,85,63,30.11,30.04,19,1,21,0.05
2013-7-20,90.8,79.3,72.8,81.1,73.9,70.3,94,84,66,30.11,30.01,18,1,18,0.04
2013-7-21,91.7,82.9,73.9,81.5,75.9,71.6,94,80,66,30.12,30.04,10,1,11,0.00
2013-7-22,92.3,84.5,76.4,80.5,77.1,74.2,93,79,66,30.13,30.06,9,1,11,0.00
2013-7-23,91.5,84.4,77.7,79.0,75.5,73.7,88,75,63,30.10,29.97,11,1,12,0.00
2013-7-24,91.0,84.7,79.8,78.8,75.3,73.2,81,74,63,30.01,29.91,16,3,18,0.00
2013-7-25,91.3,84.4,81.2,79.3,76.2,75.0,83,77,66,30.01,29.89,15,4,19,0.00
2013-7-26,92.0,84.5,76.8,80.0,77.0,74.0,93,79,64,30.01,29.94,14,3,14,0.27
2013-7-27,93.6,84.3,76.7,78.7,75.4,72.6,94,76,54,30.00,29.91,12,2,15,0.00
2013-7-28,92.3,82.9,75.2,79.5,75.3,72.6,94,79,60,30.06,29.93,10,0,11,0.03
2013-7-29,95.5,82.3,73.9,78.9,74.0,68.7,93,78,53,30.14,30.02,20,1,21,0.62
2013-7-30,95.5,82.0,74.3,78.6,74.4,72.1,94,80,50,30.16,30.05,12,1,16,0.36
2013-7-31,93.9,82.7,75.4,79.8,75.3,71.4,94,79,56,30.13,30.00,10,1,12,0.01